Time;durP1;ratioP1;P1;durP2;ratioP2;P2;SDS_P1;SDS_P2;PMS_P1;PMS_P2;Temp;Humidity;BMP_temperature;BMP_pressure;BME280_temperature;BME280_humidity;BME280_pressure;Samples;Min_cycle;Max_cycle;Signal;HPM_P1;HPM_P2
2021/08/13 00:02:07;;;;;;;10.23;9.23;;;21.90;99.90;;;;;;6222276;23;20409;-83
2021/08/13 00:04:34;;;;;;;8.80;8.00;;;21.90;99.90;;;;;;6223419;23;20411;-83
2021/08/13 00:07:00;;;;;;;9.70;8.77;;;21.90;99.90;;;;;;6223123;23;20430;-83
2021/08/13 00:09:27;;;;;;;8.97;8.07;;;21.90;99.90;;;;;;6222880;23;20422;-82
2021/08/13 00:11:54;;;;;;;9.50;8.60;;;21.90;99.90;;;;;;6222499;23;20428;-83
2021/08/13 00:14:21;;;;;;;8.87;8.17;;;21.80;99.90;;;;;;6222477;23;20391;-83
2021/08/13 00:16:49;;;;;;;10.03;9.20;;;21.80;99.90;;;;;;6222391;23;20465;-83
2021/08/13 00:19:16;;;;;;;13.20;9.07;;;21.70;99.90;;;;;;6221843;23;20421;-83
2021/08/13 00:21:43;;;;;;;9.33;8.53;;;21.70;99.90;;;;;;6222948;23;20434;-83
2021/08/13 00:24:10;;;;;;;9.30;8.50;;;21.70;99.90;;;;;;6223067;23;20481;-83
2021/08/13 00:26:37;;;;;;;9.50;8.70;;;21.70;99.90;;;;;;6222797;23;20422;-83
2021/08/13 00:29:04;;;;;;;9.00;8.30;;;21.70;99.90;;;;;;6222683;23;20415;-83
2021/08/13 00:31:30;;;;;;;11.40;9.00;;;21.70;99.90;;;;;;6222363;23;20435;-83
2021/08/13 00:33:59;;;;;;;11.67;9.23;;;21.60;99.90;;;;;;6222321;23;20995;-83
2021/08/13 00:36:25;;;;;;;11.40;8.60;;;21.60;99.90;;;;;;6222000;23;20537;-83
2021/08/13 00:38:54;;;;;;;9.47;8.57;;;21.60;99.90;;;;;;6222455;23;20411;-83
2021/08/13 00:41:21;;;;;;;9.33;8.57;;;21.60;99.90;;;;;;6222193;23;20741;-83
2021/08/13 00:43:48;;;;;;;9.60;8.63;;;21.60;99.90;;;;;;6222236;23;20415;-83
2021/08/13 00:46:15;;;;;;;9.60;8.80;;;21.50;99.90;;;;;;6222128;23;20898;-83
2021/08/13 00:48:41;;;;;;;9.47;8.57;;;21.50;99.90;;;;;;6221993;23;20925;-83
2021/08/13 00:51:10;;;;;;;9.80;8.70;;;21.50;99.90;;;;;;6221802;23;20437;-83
2021/08/13 00:53:37;;;;;;;9.17;8.33;;;21.50;99.90;;;;;;6222193;23;20518;-83
2021/08/13 00:56:04;;;;;;;8.90;8.20;;;21.50;99.90;;;;;;6223001;23;20407;-83
2021/08/13 00:58:31;;;;;;;10.57;9.57;;;21.40;99.90;;;;;;6222606;23;20416;-83
2021/08/13 01:00:58;;;;;;;9.40;8.60;;;21.40;99.90;;;;;;6222575;23;20435;-83
2021/08/13 01:03:25;;;;;;;10.50;9.60;;;21.30;99.90;;;;;;6221975;23;20916;-83
2021/08/13 01:05:52;;;;;;;10.00;9.10;;;21.30;99.90;;;;;;6223374;23;20418;-83
2021/08/13 01:08:20;;;;;;;10.57;9.70;;;21.20;99.90;;;;;;6222113;23;20742;-82
2021/08/13 01:10:54;;;;;;;10.70;9.80;;;21.20;99.90;;;;;;6222284;23;20434;-83
2021/08/13 01:13:27;;;;;;;11.87;10.80;;;21.20;99.90;;;;;;6230084;23;20397;-82
2021/08/13 01:16:00;;;;;;;10.17;9.07;;;21.10;99.90;;;;;;6240691;23;20386;-82
2021/08/13 01:18:31;;;;;;;10.03;9.07;;;21.10;99.90;;;;;;6232933;23;20520;-83
2021/08/13 01:21:17;;;;;;;11.97;10.77;;;21.10;99.90;;;;;;6221794;23;20442;-83
2021/08/13 01:23:50;;;;;;;9.23;8.43;;;21.00;99.90;;;;;;6221341;23;20424;-83
2021/08/13 01:26:19;;;;;;;9.40;8.60;;;21.00;99.90;;;;;;6222540;23;20408;-83
2021/08/13 01:28:56;;;;;;;10.13;9.10;;;21.00;99.90;;;;;;6221486;23;20461;-83
2021/08/13 01:31:25;;;;;;;10.70;9.60;;;21.00;99.90;;;;;;6221827;23;20437;-83
2021/08/13 01:33:58;;;;;;;9.90;8.90;;;20.90;99.90;;;;;;6222473;23;20416;-83
2021/08/13 01:36:27;;;;;;;10.97;9.87;;;20.90;99.90;;;;;;6221858;23;20401;-83
2021/08/13 01:38:55;;;;;;;10.10;9.10;;;20.70;99.90;;;;;;6222129;23;20414;-83
2021/08/13 01:41:24;;;;;;;11.07;9.63;;;20.70;99.90;;;;;;6221952;23;20738;-83
2021/08/13 01:43:51;;;;;;;9.20;8.50;;;20.70;99.90;;;;;;6221749;23;20408;-83
2021/08/13 01:46:18;;;;;;;11.87;10.83;;;20.70;99.90;;;;;;6222124;23;20411;-83
2021/08/13 01:48:46;;;;;;;10.90;9.97;;;20.70;99.90;;;;;;6222864;23;20420;-83
2021/08/13 01:51:18;;;;;;;11.07;9.97;;;20.70;99.90;;;;;;6225929;23;20428;-83
2021/08/13 01:53:47;;;;;;;9.40;8.50;;;20.70;99.90;;;;;;6225431;23;20393;-83
2021/08/13 01:56:14;;;;;;;10.40;9.40;;;20.70;99.90;;;;;;6225846;23;20470;-83
2021/08/13 01:58:41;;;;;;;9.60;8.70;;;20.60;99.90;;;;;;6226018;23;20442;-83
2021/08/13 02:01:09;;;;;;;9.73;9.00;;;20.60;99.90;;;;;;6225337;23;20441;-83
2021/08/13 02:03:38;;;;;;;10.40;9.47;;;20.60;99.90;;;;;;6223926;23;20417;-83
2021/08/13 02:06:06;;;;;;;10.17;8.70;;;20.60;99.90;;;;;;6224511;23;20459;-83
2021/08/13 02:08:37;;;;;;;11.50;10.30;;;20.70;99.90;;;;;;6225649;23;20416;-83
2021/08/13 02:11:05;;;;;;;10.40;9.50;;;20.70;99.90;;;;;;6225493;23;20427;-83
2021/08/13 02:13:34;;;;;;;11.07;10.07;;;20.70;99.90;;;;;;6224113;23;20417;-83
2021/08/13 02:16:05;;;;;;;10.47;9.47;;;20.70;99.90;;;;;;6226034;23;20444;-83
2021/08/13 02:18:35;;;;;;;9.97;9.17;;;20.70;99.90;;;;;;6225113;23;20436;-83
2021/08/13 02:21:05;;;;;;;10.20;9.20;;;20.80;99.90;;;;;;6225278;23;20451;-83
2021/08/13 02:23:34;;;;;;;13.67;9.30;;;20.80;99.90;;;;;;6224876;23;20425;-83
2021/08/13 02:26:00;;;;;;;15.60;9.40;;;20.80;99.90;;;;;;6222745;23;20436;-83
2021/08/13 02:28:27;;;;;;;9.30;8.47;;;20.80;99.90;;;;;;6222411;23;20405;-83
2021/08/13 02:30:54;;;;;;;11.77;10.77;;;20.80;99.90;;;;;;6221404;23;20435;-83
2021/08/13 02:33:21;;;;;;;9.63;8.70;;;20.70;99.90;;;;;;6222656;23;20770;-83
2021/08/13 02:35:51;;;;;;;9.70;8.80;;;20.70;99.90;;;;;;6225251;23;20412;-83
2021/08/13 02:38:20;;;;;;;11.70;9.20;;;20.80;99.90;;;;;;6224880;23;20447;-83
2021/08/13 02:40:53;;;;;;;8.87;8.03;;;20.80;99.90;;;;;;6227371;23;20509;-83
2021/08/13 02:43:26;;;;;;;9.70;8.77;;;20.80;99.90;;;;;;6227466;23;20394;-83
2021/08/13 02:45:58;;;;;;;9.50;8.60;;;20.80;99.90;;;;;;6227425;23;20397;-83
2021/08/13 02:48:26;;;;;;;10.30;9.40;;;20.80;99.90;;;;;;6227664;23;20393;-83
2021/08/13 02:50:55;;;;;;;10.17;9.17;;;20.80;99.90;;;;;;6228140;23;20434;-83
2021/08/13 02:53:23;;;;;;;10.07;9.07;;;20.80;99.90;;;;;;6227044;23;20406;-83
2021/08/13 02:55:56;;;;;;;9.90;9.00;;;20.80;99.90;;;;;;6226731;23;20407;-83
2021/08/13 02:58:28;;;;;;;10.90;9.90;;;20.80;99.90;;;;;;6227117;23;20943;-83
2021/08/13 03:00:56;;;;;;;10.77;9.73;;;20.90;99.90;;;;;;6227469;23;20426;-83
2021/08/13 03:03:23;;;;;;;10.83;9.73;;;20.90;99.90;;;;;;6226962;23;20414;-82
2021/08/13 03:05:52;;;;;;;11.17;10.07;;;21.00;99.90;;;;;;6226639;23;20409;-83
2021/08/13 03:08:20;;;;;;;12.27;10.93;;;21.00;99.90;;;;;;6226279;23;20414;-83
2021/08/13 03:10:49;;;;;;;10.90;9.90;;;21.10;99.90;;;;;;6226388;23;20758;-83
2021/08/13 03:13:18;;;;;;;9.90;9.00;;;21.10;99.90;;;;;;6226207;23;20417;-83
2021/08/13 03:15:46;;;;;;;11.03;9.73;;;21.20;99.90;;;;;;6225791;23;20423;-83
2021/08/13 03:18:14;;;;;;;11.40;10.30;;;21.20;99.90;;;;;;6225434;23;20446;-83
2021/08/13 03:20:41;;;;;;;13.63;10.93;;;21.30;99.90;;;;;;6225511;23;20506;-83
2021/08/13 03:23:08;;;;;;;10.70;9.70;;;21.30;99.90;;;;;;6225544;23;20413;-83
2021/08/13 03:25:36;;;;;;;10.60;9.60;;;21.30;99.90;;;;;;6226231;23;20482;-83
2021/08/13 03:28:06;;;;;;;10.53;9.60;;;21.40;99.90;;;;;;6225632;23;20502;-83
2021/08/13 03:30:39;;;;;;;12.80;11.23;;;21.40;99.90;;;;;;6224866;23;20430;-83
2021/08/13 03:33:08;;;;;;;11.10;10.00;;;21.40;99.90;;;;;;6224866;23;20718;-83
2021/08/13 03:35:35;;;;;;;11.20;10.07;;;21.40;99.90;;;;;;6225495;23;20428;-83
2021/08/13 03:38:02;;;;;;;11.83;10.60;;;21.30;99.90;;;;;;6225881;23;20448;-83
2021/08/13 03:40:28;;;;;;;10.10;9.20;;;21.30;99.90;;;;;;6225831;23;20433;-83
2021/08/13 03:42:55;;;;;;;11.33;10.23;;;21.30;99.90;;;;;;6225802;23;20417;-83
2021/08/13 03:45:22;;;;;;;11.17;10.17;;;21.30;99.90;;;;;;6225839;23;20413;-83
2021/08/13 03:47:50;;;;;;;10.67;9.73;;;21.30;99.90;;;;;;6225169;23;20418;-83
2021/08/13 03:50:17;;;;;;;11.00;10.03;;;21.40;99.90;;;;;;6226098;23;20494;-83
2021/08/13 03:52:44;;;;;;;10.80;9.70;;;21.30;99.90;;;;;;6224780;23;20418;-83
2021/08/13 03:55:13;;;;;;;11.03;10.00;;;21.30;99.90;;;;;;6225591;23;20469;-83
2021/08/13 03:57:40;;;;;;;10.67;9.77;;;21.20;99.90;;;;;;6225482;23;20475;-83
2021/08/13 04:00:08;;;;;;;11.00;10.10;;;21.20;99.90;;;;;;6226267;23;20441;-83
2021/08/13 04:02:35;;;;;;;11.50;10.40;;;21.30;99.90;;;;;;6224899;23;20434;-83
2021/08/13 04:05:04;;;;;;;11.60;10.70;;;21.30;99.90;;;;;;6226053;23;20419;-83
2021/08/13 04:07:31;;;;;;;9.40;8.53;;;21.30;99.90;;;;;;6226855;23;20413;-83
2021/08/13 04:09:57;;;;;;;11.17;10.27;;;21.40;99.90;;;;;;6226443;23;20418;-84
2021/08/13 04:12:24;;;;;;;11.27;10.27;;;21.40;99.90;;;;;;6225316;23;20435;-84
2021/08/13 04:14:51;;;;;;;11.57;10.40;;;21.40;99.90;;;;;;6224938;23;20417;-84
2021/08/13 04:17:18;;;;;;;10.63;9.70;;;21.40;99.90;;;;;;6225914;23;20423;-84
2021/08/13 04:19:44;;;;;;;11.30;10.30;;;21.50;99.90;;;;;;6225731;23;20413;-84
2021/08/13 04:22:12;;;;;;;11.90;10.70;;;21.50;99.90;;;;;;6224843;23;20441;-84
2021/08/13 04:24:39;;;;;;;10.57;9.57;;;21.50;99.90;;;;;;6225593;23;20435;-84
2021/08/13 04:27:06;;;;;;;10.90;9.90;;;21.50;99.90;;;;;;6224878;23;20433;-84
2021/08/13 04:29:33;;;;;;;10.73;9.77;;;21.50;99.90;;;;;;6225482;23;20408;-84
2021/08/13 04:32:00;;;;;;;11.80;10.17;;;21.50;99.90;;;;;;6225328;23;20429;-82
2021/08/13 04:34:26;;;;;;;11.53;10.47;;;21.50;99.90;;;;;;6225392;23;20474;-82
2021/08/13 04:36:53;;;;;;;10.73;9.63;;;21.50;99.90;;;;;;6224683;23;20422;-81
2021/08/13 04:39:21;;;;;;;11.67;10.67;;;21.60;99.90;;;;;;6225066;23;20453;-82
2021/08/13 04:41:48;;;;;;;10.97;9.87;;;21.60;99.90;;;;;;6224421;23;20806;-82
2021/08/13 04:44:15;;;;;;;10.97;9.97;;;21.60;99.90;;;;;;6225909;23;20416;-82
2021/08/13 04:46:41;;;;;;;10.20;9.20;;;21.60;99.90;;;;;;6224972;23;20413;-82
2021/08/13 04:49:08;;;;;;;11.20;10.10;;;21.70;99.90;;;;;;6223712;23;20406;-82
2021/08/13 04:51:35;;;;;;;11.77;10.37;;;21.70;99.90;;;;;;6223790;23;20431;-82
2021/08/13 04:54:01;;;;;;;10.17;9.17;;;21.60;99.90;;;;;;6225965;23;20916;-82
2021/08/13 04:56:29;;;;;;;10.97;9.93;;;21.70;99.90;;;;;;6225489;23;20418;-84
2021/08/13 04:58:56;;;;;;;10.43;9.57;;;21.60;99.90;;;;;;6224512;23;20443;-84
2021/08/13 05:01:24;;;;;;;11.43;10.30;;;21.60;99.90;;;;;;6224689;23;20426;-84
2021/08/13 05:03:50;;;;;;;10.67;9.70;;;21.70;99.90;;;;;;6224907;23;20417;-84
2021/08/13 05:06:18;;;;;;;15.00;10.50;;;21.70;99.90;;;;;;6225553;23;20417;-84
2021/08/13 05:08:45;;;;;;;9.57;8.77;;;21.70;99.90;;;;;;6225504;23;20470;-84
2021/08/13 05:11:12;;;;;;;10.30;9.40;;;21.70;99.90;;;;;;6229211;23;20411;-83
2021/08/13 05:13:40;;;;;;;10.40;9.50;;;21.70;99.90;;;;;;6235669;23;20447;-83
2021/08/13 05:16:07;;;;;;;11.70;10.30;;;21.70;99.90;;;;;;6235791;23;20467;-82
2021/08/13 05:18:35;;;;;;;11.00;10.00;;;21.70;99.90;;;;;;6225448;23;20767;-84
2021/08/13 05:21:02;;;;;;;11.93;10.83;;;21.70;99.90;;;;;;6224325;23;20442;-84
2021/08/13 05:23:28;;;;;;;11.57;10.37;;;21.70;99.90;;;;;;6224900;23;20418;-84
2021/08/13 05:25:59;;;;;;;11.43;10.33;;;21.70;99.90;;;;;;6225420;23;20416;-84
2021/08/13 05:28:26;;;;;;;12.20;11.10;;;21.70;99.90;;;;;;6225243;23;20866;-84
2021/08/13 05:30:54;;;;;;;11.47;10.27;;;21.70;99.90;;;;;;6224716;23;20502;-84
2021/08/13 05:33:21;;;;;;;12.10;10.30;;;21.70;99.90;;;;;;6224928;23;20826;-84
2021/08/13 05:35:48;;;;;;;11.50;10.40;;;21.80;99.90;;;;;;6225998;23;20472;-84
2021/08/13 05:38:15;;;;;;;12.20;11.00;;;21.80;99.90;;;;;;6225092;23;20446;-84
2021/08/13 05:40:42;;;;;;;11.37;10.37;;;21.80;99.90;;;;;;6224461;23;20426;-82
2021/08/13 05:43:09;;;;;;;11.20;10.40;;;21.90;99.90;;;;;;6225314;23;20414;-84
2021/08/13 05:45:36;;;;;;;10.43;9.40;;;22.00;99.90;;;;;;6225820;23;20418;-84
2021/08/13 05:48:05;;;;;;;9.60;8.80;;;22.00;99.90;;;;;;6225075;23;20439;-84
2021/08/13 05:50:32;;;;;;;10.70;9.70;;;21.90;99.90;;;;;;6225906;23;20437;-84
2021/08/13 05:52:59;;;;;;;11.13;10.13;;;22.00;99.90;;;;;;6225512;23;20415;-84
2021/08/13 05:55:26;;;;;;;10.90;9.80;;;22.10;99.90;;;;;;6225128;23;20427;-84
2021/08/13 05:57:53;;;;;;;11.90;9.00;;;22.20;99.90;;;;;;6225045;23;20411;-84
2021/08/13 06:00:19;;;;;;;12.17;10.97;;;22.30;99.90;;;;;;6224082;23;20437;-84
2021/08/13 06:02:58;;;;;;;10.57;9.67;;;22.40;99.90;;;;;;6224713;23;20407;-84
2021/08/13 06:05:26;;;;;;;11.33;10.20;;;22.50;99.90;;;;;;6224521;23;20428;-84
2021/08/13 06:07:53;;;;;;;10.67;9.57;;;22.50;99.90;;;;;;6225106;23;20487;-84
2021/08/13 06:10:21;;;;;;;9.93;9.00;;;22.60;99.90;;;;;;6225611;23;20427;-84
2021/08/13 06:12:47;;;;;;;9.97;8.97;;;22.60;99.90;;;;;;6224328;23;20772;-82
2021/08/13 06:15:15;;;;;;;12.33;10.70;;;22.70;99.90;;;;;;6225394;23;20508;-82
2021/08/13 06:17:43;;;;;;;10.93;9.93;;;22.70;99.90;;;;;;6229645;23;20956;-82
2021/08/13 06:20:12;;;;;;;12.30;11.13;;;22.70;99.90;;;;;;6227775;23;20436;-82
2021/08/13 06:22:40;;;;;;;15.10;11.43;;;22.80;99.90;;;;;;6227012;23;20424;-82
2021/08/13 06:25:07;;;;;;;10.03;9.13;;;22.80;99.90;;;;;;6228810;23;20418;-82
2021/08/13 06:27:35;;;;;;;11.03;10.00;;;22.70;99.90;;;;;;6228464;23;20745;-82
2021/08/13 06:30:01;;;;;;;10.00;9.10;;;22.70;99.90;;;;;;6226915;23;20431;-82
2021/08/13 06:32:28;;;;;;;12.43;10.10;;;22.80;99.90;;;;;;6226142;23;20918;-82
2021/08/13 06:34:55;;;;;;;10.47;9.43;;;23.00;99.90;;;;;;6227119;23;20496;-82
2021/08/13 06:37:22;;;;;;;11.40;10.30;;;23.20;99.90;;;;;;6227308;23;20416;-84
2021/08/13 06:39:50;;;;;;;10.07;9.27;;;23.30;99.90;;;;;;6227379;23;20478;-84
2021/08/13 06:42:16;;;;;;;9.57;8.57;;;23.30;99.90;;;;;;6226448;23;20440;-84
2021/08/13 06:44:43;;;;;;;10.07;9.13;;;23.40;99.90;;;;;;6229197;23;20405;-84
2021/08/13 06:47:10;;;;;;;9.50;8.70;;;23.50;99.90;;;;;;6226617;23;20417;-84
2021/08/13 06:49:37;;;;;;;10.30;9.40;;;23.40;99.90;;;;;;6227140;23;20405;-84
2021/08/13 06:52:07;;;;;;;10.07;8.80;;;23.50;99.90;;;;;;6227975;23;20499;-84
2021/08/13 06:54:34;;;;;;;9.97;8.87;;;23.60;99.90;;;;;;6227852;23;20429;-84
2021/08/13 06:57:02;;;;;;;7.80;7.20;;;23.70;99.90;;;;;;6227470;23;20905;-82
2021/08/13 06:59:29;;;;;;;10.37;8.20;;;23.70;99.90;;;;;;6227515;23;20449;-82
2021/08/13 07:01:56;;;;;;;9.47;8.67;;;23.80;99.90;;;;;;6227648;23;20421;-82
2021/08/13 07:04:22;;;;;;;10.47;9.47;;;23.90;99.90;;;;;;6226649;23;20409;-82
2021/08/13 07:06:49;;;;;;;9.27;8.43;;;23.90;99.90;;;;;;6226463;23;20915;-82
2021/08/13 07:09:16;;;;;;;13.20;9.20;;;24.00;99.90;;;;;;6225859;23;20497;-82
2021/08/13 07:11:42;;;;;;;9.83;8.43;;;24.10;99.90;;;;;;6225719;23;20430;-82
2021/08/13 07:14:11;;;;;;;10.30;8.70;;;24.30;99.90;;;;;;6225965;23;20389;-82
2021/08/13 07:16:37;;;;;;;8.47;7.80;;;24.50;99.90;;;;;;6224958;23;20415;-84
2021/08/13 07:19:04;;;;;;;7.73;7.00;;;24.60;99.90;;;;;;6224185;23;20441;-84
2021/08/13 07:21:31;;;;;;;7.50;6.87;;;24.60;99.90;;;;;;6225224;23;20765;-84
2021/08/13 07:23:57;;;;;;;8.93;7.40;;;24.70;99.90;;;;;;6225733;23;20401;-84
2021/08/13 07:26:24;;;;;;;8.40;7.60;;;24.80;99.90;;;;;;6224766;23;20405;-84
2021/08/13 07:28:51;;;;;;;7.87;6.70;;;24.80;99.90;;;;;;6224806;23;20409;-84
2021/08/13 07:31:19;;;;;;;8.03;6.20;;;25.00;99.90;;;;;;6225140;23;20433;-84
2021/08/13 07:33:46;;;;;;;6.13;5.27;;;25.00;99.90;;;;;;6224631;23;20468;-84
2021/08/13 07:36:12;;;;;;;7.07;6.40;;;25.00;99.80;;;;;;6225084;23;20424;-84
2021/08/13 07:38:40;;;;;;;6.67;6.00;;;25.10;99.70;;;;;;6224849;23;20440;-84
2021/08/13 07:41:07;;;;;;;6.17;5.57;;;25.20;98.50;;;;;;6224866;23;20489;-84
2021/08/13 07:43:35;;;;;;;7.93;6.40;;;25.20;98.30;;;;;;6224799;23;20984;-84
2021/08/13 07:46:01;;;;;;;8.50;7.60;;;25.30;97.90;;;;;;6225669;23;20441;-84
2021/08/13 07:48:30;;;;;;;6.57;6.00;;;25.40;98.20;;;;;;6227191;23;20414;-84
2021/08/13 07:50:56;;;;;;;6.77;6.23;;;25.40;97.50;;;;;;6226180;23;20437;-84
2021/08/13 07:53:23;;;;;;;7.00;6.30;;;25.50;97.30;;;;;;6224866;23;20711;-85
2021/08/13 07:55:50;;;;;;;7.87;6.17;;;25.60;97.90;;;;;;6226097;23;20418;-84
2021/08/13 07:58:17;;;;;;;5.80;5.37;;;25.70;97.70;;;;;;6224220;23;20410;-85
2021/08/13 08:00:43;;;;;;;6.00;5.50;;;25.90;97.40;;;;;;6223440;23;20945;-84
2021/08/13 08:03:10;;;;;;;6.40;5.80;;;26.00;96.80;;;;;;6224818;23;20406;-84
2021/08/13 08:05:38;;;;;;;6.47;5.03;;;26.10;96.80;;;;;;6225958;23;20419;-84
2021/08/13 08:08:06;;;;;;;7.00;5.13;;;26.10;96.00;;;;;;6224317;23;20419;-84
2021/08/13 08:10:33;;;;;;;6.63;6.13;;;26.20;95.80;;;;;;6224765;23;20437;-82
2021/08/13 08:12:59;;;;;;;5.47;4.90;;;26.30;95.70;;;;;;6224582;23;20415;-82
2021/08/13 08:15:26;;;;;;;7.40;5.60;;;26.40;95.40;;;;;;6226632;23;20408;-82
2021/08/13 08:17:53;;;;;;;6.70;5.77;;;26.30;95.60;;;;;;6226626;23;20410;-84
2021/08/13 08:20:20;;;;;;;7.60;5.17;;;26.30;95.80;;;;;;6225752;23;20452;-84
2021/08/13 08:22:48;;;;;;;6.37;4.90;;;26.50;95.40;;;;;;6224687;23;20415;-84
2021/08/13 08:25:15;;;;;;;8.13;6.60;;;26.60;95.90;;;;;;6228074;23;20488;-85
2021/08/13 08:27:42;;;;;;;7.00;5.30;;;26.70;95.20;;;;;;6228453;23;20407;-85
2021/08/13 08:30:09;;;;;;;6.30;5.70;;;26.80;95.00;;;;;;6224994;23;20523;-84
2021/08/13 08:32:36;;;;;;;5.67;5.17;;;27.00;94.00;;;;;;6224210;23;20416;-84
2021/08/13 08:35:03;;;;;;;5.70;5.30;;;27.10;94.20;;;;;;6225979;23;20412;-85
2021/08/13 08:37:30;;;;;;;6.13;4.73;;;27.20;94.20;;;;;;6223195;23;20406;-84
2021/08/13 08:39:58;;;;;;;5.03;4.53;;;27.40;94.00;;;;;;6223596;23;20983;-85
2021/08/13 08:42:25;;;;;;;5.43;4.57;;;27.60;93.60;;;;;;6224060;23;20833;-84
2021/08/13 08:44:51;;;;;;;7.60;5.50;;;27.70;93.70;;;;;;6225686;23;20415;-85
2021/08/13 08:47:21;;;;;;;7.83;5.07;;;27.70;93.50;;;;;;6225579;23;20474;-85
2021/08/13 08:49:50;;;;;;;6.00;5.40;;;27.50;93.40;;;;;;6226112;23;20737;-85
2021/08/13 08:52:18;;;;;;;6.67;5.57;;;27.60;93.40;;;;;;6224888;23;20402;-85
2021/08/13 08:54:47;;;;;;;5.40;4.90;;;27.70;93.30;;;;;;6224487;23;20413;-85
2021/08/13 08:57:16;;;;;;;6.27;5.67;;;27.70;93.60;;;;;;6225232;23;20418;-85
2021/08/13 08:59:43;;;;;;;7.20;6.10;;;27.80;93.60;;;;;;6223120;23;20443;-85
2021/08/13 09:02:09;;;;;;;6.93;6.43;;;27.80;93.30;;;;;;6223416;23;20910;-84
2021/08/13 09:04:36;;;;;;;5.90;5.40;;;27.60;93.40;;;;;;6224766;23;20477;-84
2021/08/13 09:07:04;;;;;;;10.33;6.60;;;27.60;94.00;;;;;;6223853;23;20476;-85
2021/08/13 09:09:30;;;;;;;7.27;5.80;;;27.70;94.20;;;;;;6223786;23;20474;-85
2021/08/13 09:11:58;;;;;;;7.10;6.40;;;27.70;94.00;;;;;;6223086;23;20450;-85
2021/08/13 09:14:37;;;;;;;9.63;6.50;;;27.70;94.80;;;;;;6225464;23;20396;-84
2021/08/13 09:17:04;;;;;;;8.30;6.07;;;27.70;94.40;;;;;;6232004;23;20395;-83
2021/08/13 09:19:43;;;;;;;7.00;6.30;;;27.70;94.20;;;;;;6232695;23;20524;-84
2021/08/13 09:22:12;;;;;;;6.40;5.90;;;27.80;94.30;;;;;;6228842;23;20402;-84
2021/08/13 09:24:41;;;;;;;8.23;7.27;;;27.90;94.00;;;;;;6225388;23;20419;-84
2021/08/13 09:27:19;;;;;;;9.30;6.47;;;27.80;94.50;;;;;;6224900;23;20963;-82
2021/08/13 09:30:13;;;;;;;6.80;6.30;;;27.90;94.00;;;;;;6223945;23;20964;-83
2021/08/13 09:32:43;;;;;;;7.00;6.40;;;28.00;93.80;;;;;;6222512;23;20410;-83
2021/08/13 09:35:13;;;;;;;7.73;6.97;;;28.20;94.10;;;;;;6224014;23;20465;-83
2021/08/13 09:37:40;;;;;;;7.60;6.83;;;28.40;93.70;;;;;;6224310;23;20415;-83
2021/08/13 09:40:08;;;;;;;7.77;6.77;;;28.50;93.40;;;;;;6222609;23;20451;-82
2021/08/13 09:42:37;;;;;;;8.00;6.37;;;28.70;93.50;;;;;;6222711;23;20507;-83
2021/08/13 09:45:07;;;;;;;7.53;6.83;;;28.80;93.40;;;;;;6222892;23;20408;-82
2021/08/13 09:47:46;;;;;;;7.57;6.87;;;29.00;93.20;;;;;;6222571;23;20411;-83
2021/08/13 09:50:15;;;;;;;6.93;6.33;;;29.20;92.60;;;;;;6224391;23;20425;-83
2021/08/13 09:52:42;;;;;;;8.00;7.20;;;29.30;92.70;;;;;;6226888;23;20418;-83
2021/08/13 09:55:13;;;;;;;8.40;7.20;;;29.30;92.50;;;;;;6227696;23;20401;-83
2021/08/13 09:57:41;;;;;;;11.00;7.40;;;29.20;92.90;;;;;;6226387;23;20432;-83
2021/08/13 10:00:09;;;;;;;7.70;7.00;;;29.20;93.90;;;;;;6226379;23;20451;-83
2021/08/13 10:02:38;;;;;;;7.50;6.90;;;29.20;93.00;;;;;;6224449;23;20440;-83
2021/08/13 10:05:20;;;;;;;8.50;7.70;;;29.40;93.60;;;;;;6222513;23;20412;-83
2021/08/13 10:07:48;;;;;;;8.40;7.50;;;29.50;92.30;;;;;;6224645;23;20400;-83
2021/08/13 10:10:16;;;;;;;9.80;7.50;;;29.80;92.30;;;;;;6224516;23;20626;-83
2021/08/13 10:12:44;;;;;;;7.37;6.67;;;29.90;91.80;;;;;;6223245;23;20420;-83
2021/08/13 10:15:12;;;;;;;7.07;6.37;;;30.00;92.30;;;;;;6225391;23;20410;-83
2021/08/13 10:17:39;;;;;;;6.60;6.00;;;30.10;92.20;;;;;;6224944;23;20748;-83
2021/08/13 10:20:07;;;;;;;8.17;7.23;;;30.20;91.40;;;;;;6223813;23;20453;-83
2021/08/13 10:22:36;;;;;;;8.33;6.77;;;30.40;92.20;;;;;;6223750;23;20720;-83
2021/08/13 10:25:03;;;;;;;8.53;7.73;;;30.60;91.00;;;;;;6223481;23;20416;-83
2021/08/13 10:27:30;;;;;;;8.70;7.67;;;30.70;90.80;;;;;;6224910;23;20412;-83
2021/08/13 10:29:58;;;;;;;7.83;7.13;;;30.60;90.70;;;;;;6223778;23;20747;-83
2021/08/13 10:32:25;;;;;;;9.43;7.40;;;30.80;90.70;;;;;;6223227;23;20426;-83
2021/08/13 10:34:51;;;;;;;6.83;6.23;;;31.00;90.70;;;;;;6225232;23;20415;-83
2021/08/13 10:37:25;;;;;;;8.60;7.47;;;31.00;90.40;;;;;;6225266;23;20417;-83
2021/08/13 10:39:56;;;;;;;9.20;7.07;;;31.00;90.00;;;;;;6224077;23;20945;-83
2021/08/13 10:42:27;;;;;;;8.50;7.53;;;31.00;90.00;;;;;;6222974;23;20425;-83
2021/08/13 10:44:58;;;;;;;7.30;6.60;;;31.20;90.00;;;;;;6223803;23;20403;-83
2021/08/13 10:47:30;;;;;;;8.23;7.50;;;31.30;89.60;;;;;;6224678;23;20398;-83
2021/08/13 10:49:58;;;;;;;8.43;7.73;;;31.40;89.10;;;;;;6225425;23;20854;-83
2021/08/13 10:52:36;;;;;;;6.73;6.10;;;31.40;89.80;;;;;;6225667;23;20423;-83
2021/08/13 10:55:06;;;;;;;9.30;7.57;;;31.40;89.30;;;;;;6224303;23;20726;-83
2021/08/13 10:57:59;;;;;;;10.80;7.37;;;31.50;89.20;;;;;;6224034;23;20413;-83
2021/08/13 11:00:26;;;;;;;9.90;8.90;;;31.50;87.30;;;;;;6222997;23;20477;-83
2021/08/13 11:03:20;;;;;;;10.03;9.13;;;31.50;87.30;;;;;;6228065;23;20411;-84
2021/08/13 11:05:51;;;;;;;10.47;9.63;;;31.60;87.60;;;;;;6228210;23;20752;-83
2021/08/13 11:08:18;;;;;;;11.70;10.70;;;31.50;88.70;;;;;;6228562;23;20407;-84
2021/08/13 11:10:57;;;;;;;12.70;10.67;;;31.40;89.00;;;;;;6228836;23;20433;-83
2021/08/13 11:13:25;;;;;;;11.70;10.70;;;31.20;89.20;;;;;;6228512;23;20438;-83
2021/08/13 11:15:54;;;;;;;10.40;9.50;;;31.00;89.70;;;;;;6230213;23;20422;-83
2021/08/13 11:18:32;;;;;;;10.83;9.93;;;30.90;90.40;;;;;;6228856;23;21049;-84
2021/08/13 11:21:00;;;;;;;12.30;11.30;;;31.10;90.20;;;;;;6228283;23;20452;-84
2021/08/13 11:23:27;;;;;;;10.80;9.80;;;31.30;90.00;;;;;;6228055;23;20412;-84
2021/08/13 11:25:56;;;;;;;11.00;10.10;;;31.40;90.50;;;;;;6230458;23;20411;-84
2021/08/13 11:28:24;;;;;;;10.67;9.90;;;31.70;89.10;;;;;;6230519;23;20412;-84
2021/08/13 11:30:53;;;;;;;10.80;9.80;;;32.10;88.10;;;;;;6229226;23;20429;-84
2021/08/13 11:33:40;;;;;;;11.10;9.67;;;32.40;87.00;;;;;;6229708;23;20418;-84
2021/08/13 11:36:07;;;;;;;10.70;9.80;;;32.60;86.00;;;;;;6228790;23;20414;-84
2021/08/13 11:39:01;;;;;;;10.33;9.43;;;32.90;85.20;;;;;;6229312;23;20445;-84
2021/08/13 11:41:30;;;;;;;12.43;10.50;;;33.00;84.40;;;;;;6222320;23;20486;-86
2021/08/13 11:44:00;;;;;;;11.33;10.40;;;33.30;83.30;;;;;;6227868;23;20401;-83
2021/08/13 11:46:29;;;;;;;9.30;8.60;;;33.70;83.20;;;;;;6227578;23;20397;-84
2021/08/13 11:49:16;;;;;;;10.83;10.00;;;34.30;80.90;;;;;;6228742;23;20417;-84
2021/08/13 11:51:45;;;;;;;10.67;9.67;;;34.50;79.70;;;;;;6227033;23;20462;-84
2021/08/13 11:54:27;;;;;;;10.30;9.50;;;34.20;79.90;;;;;;6228326;23;20401;-84
2021/08/13 11:57:12;;;;;;;9.93;9.20;;;34.00;80.70;;;;;;6228341;23;20400;-84
2021/08/13 11:59:38;;;;;;;10.77;9.87;;;34.20;80.90;;;;;;6229340;23;20420;-83
2021/08/13 12:02:05;;;;;;;11.40;10.43;;;34.50;79.50;;;;;;6227760;23;20429;-83
2021/08/13 12:04:38;;;;;;;10.77;9.83;;;34.80;79.20;;;;;;6229204;23;20405;-84
2021/08/13 12:07:08;;;;;;;11.10;9.80;;;35.00;79.10;;;;;;6226950;23;20393;-84
2021/08/13 12:09:37;;;;;;;11.07;10.07;;;35.30;76.90;;;;;;6228146;23;20419;-84
2021/08/13 12:12:07;;;;;;;11.60;10.63;;;35.40;75.80;;;;;;6228150;23;20524;-84
2021/08/13 12:14:35;;;;;;;10.10;9.20;;;34.80;74.60;;;;;;6227881;23;20420;-84
2021/08/13 12:17:02;;;;;;;10.17;9.27;;;34.60;75.70;;;;;;6228104;23;20980;-84
2021/08/13 12:19:29;;;;;;;9.57;8.67;;;34.20;76.60;;;;;;6229822;23;20744;-84
2021/08/13 12:21:58;;;;;;;11.10;10.20;;;33.60;77.10;;;;;;6228656;23;20495;-84
2021/08/13 12:24:32;;;;;;;11.30;9.90;;;33.40;77.90;;;;;;6228493;23;20503;-83
2021/08/13 12:27:01;;;;;;;9.40;8.67;;;33.20;80.30;;;;;;6227628;23;20390;-84
2021/08/13 12:29:31;;;;;;;10.33;9.33;;;33.50;81.90;;;;;;6228284;23;20435;-84
2021/08/13 12:31:59;;;;;;;10.00;9.00;;;34.10;80.60;;;;;;6227646;23;20429;-84
2021/08/13 12:34:31;;;;;;;10.20;9.33;;;34.70;77.10;;;;;;6227541;23;20416;-83
2021/08/13 12:37:03;;;;;;;10.13;9.27;;;35.10;75.10;;;;;;6227584;23;20403;-84
2021/08/13 12:39:31;;;;;;;9.83;9.03;;;35.40;73.70;;;;;;6228293;23;20409;-84
2021/08/13 12:41:58;;;;;;;9.97;9.07;;;35.40;73.30;;;;;;6227222;23;20455;-84
2021/08/13 12:44:25;;;;;;;11.07;8.83;;;35.30;74.40;;;;;;6228362;23;20923;-82
2021/08/13 12:46:54;;;;;;;9.57;8.77;;;35.40;73.80;;;;;;6227950;23;20419;-84